Pagrindinis puslapis
METAR-TAF:

METAR-TAF

Oro uostai :

Rosh Pinna, Izraelis

platuma: 32-58-48N, ilguma: 035-34-12E, Aukštis: 281 m

Dabartinis oras

Ataskaita buvo paskelbta 2 valandos ir 0 minutes, ne 15:50 UTC
Vėjas 9 kt iš Šiaurės Vakarų
Temperatūra 14°C
Drėgmė 67%
Slėgis 1014 hPa
Matomumas 10 km arba daugiau
Mažai debesys ne aukštis 3500 ft

METAR: LLIB 251550Z 32009KT 9999 FEW035 14/08 Q1014

Laikas: 19:50 (17:50 UTC)

Prognozė

Ataskaita buvo paskelbta 6 valandos ir 34 minutes, ne 11:16 UTC
Prognozė galioja nuo 25 metu 12 UTC su 26 metu 12 UTC
Vėjas 10 kt iš Šiaurės Vakarų
Matomumas: 7000 m
Išsisklaidę debesys ne aukštis 2500 ft
Laikinai
nuo 25 metu 12 UTC su 25 metu 14 UTC
Vėjas 15 kt iš Šiaurės Vakarų su gūsio iki 25 kt
Matomumas: 5000 m
Išsisklaidę debesys ne aukštis 2000 ft, aukštai iškilę kamuoliniai debesys.
lietus

TAF: LLIB 251116Z 2512/2612 32010KT 7000 NSW SCT025 TEMPO 2512/2514 32015G25KT 5000 RA SCT020TCU TX15/2512Z TN06/2604Z

Orai ataskaitas ir orų prognozės (METAR, TAF).

turimą stotys yra geltonos ir raudonos taškus žemėlapyje.

Perkelti pele per norėdami pamatyti stoties vardą.

Tada spustelėkite, norėdami matyti oro stebėjimo ir prognozės.

Norėdami pakeisti žemėlapį: spustelėkite ant žalios mygtukų su juodo kryžiaus žemyn,; žalią mygtuką su brūkšneliu, jei norite nutolinti; arba žalių rodyklių gretimoms žemėlapius.


METAR-TAF: